Meadowlands, MN

9:51 AM CDT on August 22, 2014 (GMT -0500)
Chisholm-hibbing | Change Station
CLOSE
Current Station
Airport
Location: Hibbing,
Elevation: 1352 ft
Nearby Weather Stations

Elev 1352 ft 47.39 °N, 92.84 °W | Updated 58 minutes ago

Overcast
Overcast
67 °F
Feels Like 67 °F
N
4
Wind Variable Wind from ENE

Today
High -- | Low -- °F
--% Chance of Precip.
Yesterday
High -- | Low -- °F
Precip. -- in
6:17 AM 8:09 PM
Waning Crescent, 8% visible
Pressure 29.97 in
Visibility 10.0 miles
Clouds Mostly Cloudy 500 ft
Mostly Cloudy 2600 ft
Overcast 3700 ft
Dew Point 62 °F
Humidity 84%
Rainfall 0.00 in
Snow Depth Not available.
UV 1 out of 12
Pollen 6.70 out of 12
Air Quality Not available.
Flu Activity Not available.
METAR KHIB 221353Z AUTO 07003KT 10SM BKN005 BKN026 OVC037 19/17 A2998 RMK AO2 SLP149 T01940167

More Conditions Fewer Conditions

Pressure 29.97 in
Visibility 10.0 miles
Clouds Mostly Cloudy 500 ft
Mostly Cloudy 2600 ft
Overcast 3700 ft
Dew Point 62 °F
Humidity 84%
Rainfall 0.00 in
Snow Depth Not available.
UV 1 out of 12
Pollen 6.70 out of 12
Air Quality Not available.
Flu Activity Not available.
METAR KHIB 221353Z AUTO 07003KT 10SM BKN005 BKN026 OVC037 19/17 A2998 RMK AO2 SLP149 T01940167

More Conditions Fewer Conditions

10-Day Weather Forecast

Almanac

Astronomy

Aug. 22, 2014 Rise Set
Actual Time 6:17 AM CDT 8:09 PM CDT
Civil Twilight 5:44 AM CDT 8:42 PM CDT
Nautical Twilight 5:04 AM CDT 9:22 PM CDT
Astronomical Twilight 4:20 AM CDT 10:06 PM CDT
Moon 3:35 AM CDT 6:22 PM CDT
Length of Visible Light 14h 57m
Length of Day
13h 52m
Tomorrow will be 3m 9s shorter.
Waning Crescent, 8% of the Moon is Illuminated
Today
Waning Crescent
Aug 25
New
Sep 2
First Quarter
Sep 8
Full
Sep 15
Last Quarter

Today's Extremes

State Highs State Lows

Community

WunderPhotos

Upload Photos

1,746,181 photos uploaded!

WunderBlogs® & News

Nearby

Snow Depth

Station Depth Elevation
No new snow has been reported.

Earthquake Activity

City Distance Mag. Time & Date
No recent earthquake activity has been reported nearby.
Minimum magnitude displayed is 2.5.

Coastal Water Temperatures

Place Temperature
No Stations Reporting

Nearby Weather Stations